Wastedo, Minnesota
Current Conditions -  °F | °C
As of 6:13 PM on Wednesday 22 Oct 2014 (Local Time) from KSYN Reporting Station
Scattered Clouds Scattered Clouds  
Wind Chill: 59°   Ceiling: Unl
Heat Index: 59°   Visibility: 10mi
Dew Point: 40°   Wind: 12mph
Humidity: 49%   Direction: 160°SSE
Pressure: 30.05"   Gusts: 20mph
Location:  44.4763°N, 92.8054°W
Report Text: KSYN 222313Z AUTO 16010G17KT 10SM SCT065 SCT090 15/04 A3005 RMK AO2 T01500043
Loading
Personal Weather Stations






























Interactive Weather Map New forecast layout! Learn more

10-Day Weather Forecast

Advertisements
Track Severe Weather on mobile